Time;durP1;ratioP1;P1;durP2;ratioP2;P2;SDS_P1;SDS_P2;PMS_P1;PMS_P2;Temp;Humidity;BMP_temperature;BMP_pressure;BME280_temperature;BME280_humidity;BME280_pressure;Samples;Min_cycle;Max_cycle;Signal;HPM_P1;HPM_P2
2023/07/03 00:00:18;;;;;;;;;2.00;2.00;;;;;20.89;38.42;100989.91;5059874;28;45386;-69
2023/07/03 00:02:45;;;;;;;;;3.25;2.75;;;;;20.88;38.30;100996.19;5059822;28;45507;-69
2023/07/03 00:05:10;;;;;;;;;8.00;5.00;;;;;20.86;38.27;100991.91;5059337;28;45272;-69
2023/07/03 00:07:37;;;;;;;;;2.75;2.75;;;;;20.84;38.37;100986.63;5059689;28;45482;-69
2023/07/03 00:10:04;;;;;;;;;5.50;4.00;;;;;20.81;38.70;100988.59;5059568;28;45270;-70
2023/07/03 00:12:30;;;;;;;;;4.00;3.00;;;;;20.78;39.06;100981.63;5059577;28;45247;-69
2023/07/03 00:14:56;;;;;;;;;6.00;5.00;;;;;20.77;38.93;100991.41;5059384;28;45398;-69
2023/07/03 00:17:21;;;;;;;;;3.75;3.75;;;;;20.77;38.67;100991.41;5059652;28;45257;-69
2023/07/03 00:19:46;;;;;;;;;5.00;3.00;;;;;20.74;38.42;100990.72;5059002;28;46089;-69
2023/07/03 00:22:12;;;;;;;;;6.00;5.00;;;;;20.73;38.86;100999.69;5060514;28;45319;-69
2023/07/03 00:24:37;;;;;;;;;4.50;3.25;;;;;20.72;38.92;100985.47;5062941;28;45321;-69
2023/07/03 00:27:02;;;;;;;;;3.25;3.00;;;;;20.71;38.59;100994.41;5063096;28;45288;-69
2023/07/03 00:29:31;;;;;;;;;4.25;3.25;;;;;20.72;38.83;100992.63;5062940;28;45577;-69
2023/07/03 00:31:56;;;;;;;;;6.50;5.50;;;;;20.73;38.78;100989.88;5062838;28;46271;-69
2023/07/03 00:34:22;;;;;;;;;3.75;3.00;;;;;20.70;39.13;100983.78;5062600;28;45300;-69
2023/07/03 00:36:47;;;;;;;;;4.25;4.25;;;;;20.70;39.17;100983.78;5063148;28;45335;-69
2023/07/03 00:39:14;;;;;;;;;5.25;4.00;;;;;20.68;39.29;100983.00;5061529;28;45859;-69
2023/07/03 00:41:40;;;;;;;;;5.50;4.75;;;;;20.68;39.17;100975.88;5062596;28;46297;-69
2023/07/03 00:44:12;;;;;;;;;6.75;5.25;;;;;20.68;39.14;100983.88;5061227;28;45359;-69
2023/07/03 00:46:39;;;;;;;;;3.00;3.00;;;;;20.68;39.15;100985.66;5071605;28;45222;-69
2023/07/03 00:49:05;;;;;;;;;4.00;4.00;;;;;20.67;39.57;100975.97;5078317;28;45548;-68
2023/07/03 00:51:30;;;;;;;;;6.00;3.75;;;;;20.65;39.58;100965.34;5072738;28;45427;-68
2023/07/03 00:53:56;;;;;;;;;5.75;3.25;;;;;20.64;39.44;100966.31;5082865;28;45382;-68
2023/07/03 00:56:21;;;;;;;;;4.75;4.75;;;;;20.61;39.37;100955.78;5082854;28;45464;-69
2023/07/03 00:58:47;;;;;;;;;5.00;4.25;;;;;20.59;39.53;100961.19;5070502;28;45259;-69
2023/07/03 01:01:22;;;;;;;;;10.00;4.50;;;;;20.57;40.11;100967.56;5062558;28;45236;-69
2023/07/03 01:03:53;;;;;;;;;4.25;2.25;;;;;20.57;40.24;100963.06;5062646;28;45400;-69
2023/07/03 01:06:23;;;;;;;;;2.75;2.25;;;;;20.53;40.01;100966.00;5062244;28;45256;-69
2023/07/03 01:08:57;;;;;;;;;3.00;2.75;;;;;20.52;40.32;100965.13;5062101;28;45318;-69
2023/07/03 01:11:22;;;;;;;;;6.00;4.00;;;;;20.49;40.03;100967.09;5061977;28;46123;-69
2023/07/03 01:13:52;;;;;;;;;6.50;4.75;;;;;20.46;40.40;100966.34;5062312;28;45289;-69
2023/07/03 01:16:18;;;;;;;;;5.00;5.00;;;;;20.44;40.42;100964.69;5072327;28;45324;-69
2023/07/03 01:18:45;;;;;;;;;6.75;5.25;;;;;20.43;40.32;100961.13;5062196;28;45611;-69
2023/07/03 01:21:28;;;;;;;;;5.00;5.00;;;;;20.42;40.83;100963.88;5060029;28;45503;-69
2023/07/03 01:24:04;;;;;;;;;7.00;4.50;;;;;20.41;40.12;100965.69;5062181;28;45204;-69
2023/07/03 01:26:31;;;;;;;;;5.00;3.25;;;;;20.39;40.37;100962.25;5061946;28;45304;-69
2023/07/03 01:28:59;;;;;;;;;7.25;5.00;;;;;20.38;41.05;100963.19;5061941;28;45249;-69
2023/07/03 01:31:29;;;;;;;;;6.50;5.50;;;;;20.34;41.10;100971.41;5061730;28;46327;-69
2023/07/03 01:33:57;;;;;;;;;6.00;5.00;;;;;20.33;40.62;100970.56;5072886;28;45445;-69
2023/07/03 01:36:23;;;;;;;;;5.25;4.25;;;;;20.34;41.01;100966.09;5061885;28;45424;-69
2023/07/03 01:38:50;;;;;;;;;5.25;5.00;;;;;20.27;40.97;100955.72;5061924;28;45257;-69
2023/07/03 01:41:18;;;;;;;;;4.25;4.00;;;;;20.30;40.82;100965.38;5080497;28;46472;-69
2023/07/03 01:43:44;;;;;;;;;6.00;4.00;;;;;20.26;41.39;100967.38;5082274;28;45168;-69
2023/07/03 01:46:10;;;;;;;;;6.00;4.25;;;;;20.24;41.52;100971.06;5082062;28;45325;-69
2023/07/03 01:48:36;;;;;;;;;4.75;4.00;;;;;20.23;41.43;100966.66;5067995;28;45302;-69
2023/07/03 01:51:04;;;;;;;;;4.25;4.00;;;;;20.23;41.61;100967.50;5067783;28;45385;-69
2023/07/03 01:53:36;;;;;;;;;6.50;3.25;;;;;20.22;41.58;100978.25;5081951;28;45297;-69
2023/07/03 01:56:10;;;;;;;;;5.00;4.00;;;;;20.19;41.59;100965.06;5082046;28;45389;-69
2023/07/03 01:58:51;;;;;;;;;7.25;6.00;;;;;20.19;41.66;100967.72;5071130;28;45473;-69
2023/07/03 02:02:02;;;;;;;;;4.75;3.75;;;;;20.16;41.68;100960.75;5061275;28;46120;-69
2023/07/03 02:04:33;;;;;;;;;4.00;4.00;;;;;20.13;41.36;100968.91;5009405;28;45329;-69
2023/07/03 02:07:01;;;;;;;;;5.75;5.75;;;;;20.12;41.39;100953.84;5057372;28;45480;-69
2023/07/03 02:09:27;;;;;;;;;5.25;4.25;;;;;20.14;41.49;100968.84;5081737;28;45469;-69
2023/07/03 02:11:53;;;;;;;;;5.00;3.50;;;;;20.11;41.33;100955.66;5081347;28;46286;-69
2023/07/03 02:14:18;;;;;;;;;6.75;5.00;;;;;20.14;41.74;100967.97;5080468;28;45371;-69
2023/07/03 02:16:47;;;;;;;;;6.00;5.00;;;;;20.16;41.92;100963.41;5062389;28;45411;-69
2023/07/03 02:19:14;;;;;;;;;7.00;4.00;;;;;20.15;41.98;100964.38;5059818;28;45419;-69
2023/07/03 02:21:40;;;;;;;;;6.25;4.00;;;;;20.12;41.46;100957.41;5079196;28;45411;-69
2023/07/03 02:24:06;;;;;;;;;8.00;5.00;;;;;20.13;42.05;100964.44;5080110;28;45309;-69
2023/07/03 02:26:31;;;;;;;;;4.50;3.25;;;;;20.11;42.16;100957.44;5081396;28;45322;-69
2023/07/03 02:28:56;;;;;;;;;5.50;3.50;;;;;20.07;42.27;100953.22;5063384;28;45546;-69
2023/07/03 02:31:22;;;;;;;;;5.50;5.00;;;;;20.08;41.77;100952.28;5081182;28;46094;-69
2023/07/03 02:33:47;;;;;;;;;6.25;4.25;;;;;20.07;42.24;100951.41;5081419;28;45334;-69
2023/07/03 02:36:12;;;;;;;;;4.25;4.00;;;;;20.08;42.18;100953.13;5081323;28;45463;-69
2023/07/03 02:38:38;;;;;;;;;5.00;5.00;;;;;20.06;42.10;100956.81;5081484;28;45394;-69
2023/07/03 02:41:03;;;;;;;;;4.00;4.00;;;;;20.00;42.53;100950.00;5080767;28;46271;-69
2023/07/03 02:43:30;;;;;;;;;5.25;5.00;;;;;20.01;42.61;100949.03;5081204;28;45287;-69
2023/07/03 02:46:05;;;;;;;;;5.25;4.25;;;;;20.02;42.62;100937.44;5080988;27;45572;-69
2023/07/03 02:48:30;;;;;;;;;6.75;4.50;;;;;20.00;42.13;100919.78;5068352;28;45344;-69
2023/07/03 02:50:56;;;;;;;;;7.25;4.75;;;;;19.99;42.47;100926.94;5065825;28;45292;-69
2023/07/03 02:53:22;;;;;;;;;6.00;4.00;;;;;20.01;42.62;100927.72;5081135;28;45230;-69
2023/07/03 02:55:53;;;;;;;;;6.75;4.75;;;;;20.01;42.71;100930.38;5080863;28;45409;-69
2023/07/03 02:58:18;;;;;;;;;7.00;5.50;;;;;20.02;42.55;100944.59;5072934;28;45318;-69
2023/07/03 03:00:44;;;;;;;;;6.00;5.00;;;;;20.02;42.62;100958.78;5059096;28;45836;-69
2023/07/03 03:03:09;;;;;;;;;4.75;4.75;;;;;19.98;43.16;100949.22;5059305;28;45380;-69
2023/07/03 03:05:35;;;;;;;;;5.00;4.00;;;;;20.01;42.75;100953.53;5059026;28;45203;-69
2023/07/03 03:08:00;;;;;;;;;5.25;4.50;;;;;19.97;42.79;100943.03;5059325;28;45188;-69
2023/07/03 03:10:25;;;;;;;;;5.75;5.75;;;;;19.95;43.12;100944.91;5059873;28;54425;-69
2023/07/03 03:12:51;;;;;;;;;3.25;3.25;;;;;19.97;43.25;100947.47;5060703;28;45283;-69
2023/07/03 03:15:18;;;;;;;;;5.75;5.00;;;;;20.00;42.80;100946.47;5059034;28;45367;-69
2023/07/03 03:17:44;;;;;;;;;7.50;6.25;;;;;20.00;43.25;100951.78;5060620;28;45196;-69
2023/07/03 03:20:11;;;;;;;;;9.00;7.25;;;;;19.96;43.33;100943.09;5059608;28;45328;-69
2023/07/03 03:22:36;;;;;;;;;8.75;6.00;;;;;19.98;43.37;100943.88;5059063;28;45375;-70
2023/07/03 03:25:02;;;;;;;;;5.00;4.75;;;;;19.98;43.23;100943.88;5058659;28;45300;-70
2023/07/03 03:27:27;;;;;;;;;7.00;6.00;;;;;19.96;43.42;100940.41;5058869;28;45616;-69
2023/07/03 03:29:53;;;;;;;;;5.75;4.75;;;;;19.96;43.50;100935.09;5060078;28;46001;-69
2023/07/03 03:32:18;;;;;;;;;4.50;4.50;;;;;19.93;43.62;100937.91;5060125;28;45337;-69
2023/07/03 03:34:43;;;;;;;;;7.75;5.00;;;;;19.94;43.36;100937.84;5058584;28;45336;-69
2023/07/03 03:37:09;;;;;;;;;8.75;6.25;;;;;19.93;43.47;100929.91;5060173;28;45516;-69
2023/07/03 03:39:34;;;;;;;;;7.50;6.00;;;;;19.92;43.74;100939.72;5059859;28;46858;-69
2023/07/03 03:42:00;;;;;;;;;6.50;6.50;;;;;19.92;44.00;100941.53;5059578;28;50782;-69
2023/07/03 03:44:25;;;;;;;;;6.50;6.00;;;;;19.89;43.66;100931.03;5060112;28;45239;-69
2023/07/03 03:46:53;;;;;;;;;5.75;5.25;;;;;19.89;43.54;100937.22;5070236;28;45485;-69
2023/07/03 03:49:19;;;;;;;;;6.25;4.25;;;;;19.87;43.88;100933.75;5061447;28;46028;-69
2023/07/03 03:51:44;;;;;;;;;6.25;5.00;;;;;19.90;44.13;100940.72;5072233;28;45252;-69
2023/07/03 03:54:10;;;;;;;;;4.50;4.50;;;;;19.87;43.74;100932.91;5078811;28;45362;-69
2023/07/03 03:56:35;;;;;;;;;6.00;5.25;;;;;19.86;43.80;100933.81;5080136;28;45500;-69
2023/07/03 03:59:01;;;;;;;;;11.00;7.50;;;;;19.86;44.19;100925.81;5069497;28;45302;-69
2023/07/03 04:01:26;;;;;;;;;6.75;5.50;;;;;19.90;44.29;100946.06;5062094;28;45379;-69
2023/07/03 04:03:51;;;;;;;;;5.50;4.00;;;;;19.90;43.71;100946.06;5063493;28;45291;-69
2023/07/03 04:06:17;;;;;;;;;6.75;6.25;;;;;19.89;43.62;100947.03;5063146;28;45427;-69
2023/07/03 04:08:43;;;;;;;;;10.50;5.00;;;;;19.88;44.38;100937.28;5063238;28;45685;-69
2023/07/03 04:11:09;;;;;;;;;4.25;4.25;;;;;19.90;43.91;100944.28;5063359;28;45331;-69
2023/07/03 04:13:35;;;;;;;;;9.50;6.75;;;;;19.88;44.22;100953.28;5063252;28;45153;-69
2023/07/03 04:16:01;;;;;;;;;9.50;5.00;;;;;19.91;44.07;100947.78;5063363;28;45417;-69
2023/07/03 04:18:28;;;;;;;;;9.25;6.75;;;;;19.89;43.83;100944.34;5063025;28;46135;-69
2023/07/03 04:20:53;;;;;;;;;8.50;5.25;;;;;19.90;44.51;100946.06;5062640;28;45294;-69
2023/07/03 04:23:18;;;;;;;;;8.00;5.25;;;;;19.89;44.30;100952.34;5076991;28;45354;-69
2023/07/03 04:25:44;;;;;;;;;8.25;7.00;;;;;19.88;44.28;100939.97;5063150;28;45221;-69
2023/07/03 04:28:11;;;;;;;;;6.50;4.50;;;;;19.86;44.53;100937.38;5062845;28;45477;-69
2023/07/03 04:30:37;;;;;;;;;7.75;5.00;;;;;19.86;44.51;100936.50;5062986;28;45260;-69
2023/07/03 04:33:02;;;;;;;;;4.75;4.50;;;;;19.88;44.25;100934.63;5062814;28;45379;-69
2023/07/03 04:35:28;;;;;;;;;6.00;6.00;;;;;19.89;44.36;100939.88;5062910;28;45437;-69
2023/07/03 04:37:53;;;;;;;;;9.00;7.00;;;;;19.88;44.77;100940.81;5080037;28;48257;-69
2023/07/03 04:40:18;;;;;;;;;7.00;6.75;;;;;19.89;44.35;100939.03;5081741;28;45403;-69
2023/07/03 04:42:44;;;;;;;;;8.00;5.00;;;;;19.90;44.75;100943.38;5064858;28;45364;-69
2023/07/03 04:45:10;;;;;;;;;5.75;5.00;;;;;19.89;44.83;100945.22;5062900;28;45315;-69
2023/07/03 04:47:37;;;;;;;;;4.75;4.00;;;;;19.86;44.00;100933.81;5074925;28;45172;-69
2023/07/03 04:50:05;;;;;;;;;6.25;4.50;;;;;19.90;44.43;100940.72;5061140;28;45274;-69
2023/07/03 04:52:31;;;;;;;;;7.75;5.75;;;;;19.93;44.33;100940.59;5080320;28;45576;-69
2023/07/03 04:54:56;;;;;;;;;4.50;4.25;;;;;19.89;44.69;100939.88;5081245;28;45652;-69
2023/07/03 04:57:21;;;;;;;;;7.50;6.25;;;;;19.88;44.99;100937.28;5082292;28;49803;-69
2023/07/03 04:59:48;;;;;;;;;7.25;5.75;;;;;19.92;44.43;100946.84;5062624;28;45414;-69
2023/07/03 05:02:17;;;;;;;;;5.25;5.25;;;;;19.91;44.57;100945.13;5061070;28;45270;-69
2023/07/03 05:04:42;;;;;;;;;8.25;6.50;;;;;19.91;44.58;100945.13;5062125;28;45232;-69
2023/07/03 05:07:08;;;;;;;;;8.50;7.25;;;;;19.87;44.42;100939.06;5062093;28;45412;-69
2023/07/03 05:09:33;;;;;;;;;7.00;4.25;;;;;19.92;44.50;100938.84;5061415;28;45283;-69
2023/07/03 05:11:59;;;;;;;;;9.25;8.25;;;;;19.91;45.06;100939.78;5062219;28;45292;-70
2023/07/03 05:14:24;;;;;;;;;8.00;7.25;;;;;19.91;45.02;100932.66;5061076;28;45227;-69
2023/07/03 05:16:49;;;;;;;;;8.00;6.25;;;;;19.92;44.81;100938.84;5062207;28;46184;-69
2023/07/03 05:19:14;;;;;;;;;4.75;4.00;;;;;19.92;45.20;100933.53;5060941;28;45877;-69
2023/07/03 05:21:40;;;;;;;;;7.75;6.00;;;;;19.89;44.83;100926.53;5062072;28;45420;-69
2023/07/03 05:24:05;;;;;;;;;5.75;5.75;;;;;19.89;44.89;100931.03;5062228;28;45466;-69
2023/07/03 05:26:31;;;;;;;;;8.00;6.25;;;;;19.91;45.38;100934.44;5061824;28;45419;-69
2023/07/03 05:28:56;;;;;;;;;5.00;4.25;;;;;19.89;45.30;100939.88;5062170;28;45437;-69
2023/07/03 05:31:23;;;;;;;;;7.50;4.50;;;;;19.91;45.53;100950.44;5060714;28;45507;-69
2023/07/03 05:33:49;;;;;;;;;7.25;4.75;;;;;19.91;45.43;100947.78;5062068;28;45477;-69
2023/07/03 05:36:15;;;;;;;;;5.00;4.50;;;;;19.89;45.11;100955.88;5061478;28;45280;-69
2023/07/03 05:38:40;;;;;;;;;7.75;4.75;;;;;19.91;45.40;100955.78;5061841;28;45315;-68
2023/07/03 05:41:06;;;;;;;;;5.00;5.00;;;;;19.89;45.15;100955.88;5061857;28;45263;-69
2023/07/03 05:43:31;;;;;;;;;5.75;5.75;;;;;19.90;45.77;100946.06;5061876;28;45510;-69
2023/07/03 05:45:56;;;;;;;;;1.00;1.00;;;;;19.90;45.78;100946.06;5046540;28;47235;-69
2023/07/03 05:48:24;;;;;;;;;7.75;4.25;;;;;19.88;45.35;100950.63;5070468;28;45242;-69
2023/07/03 05:50:50;;;;;;;;;5.50;5.00;;;;;19.87;45.81;100946.22;5066315;28;45463;-69
2023/07/03 05:53:15;;;;;;;;;8.25;5.00;;;;;19.85;45.70;100948.09;5081996;28;45442;-69
2023/07/03 05:55:41;;;;;;;;;5.25;5.00;;;;;19.86;45.87;100949.81;5080301;28;45864;-69
2023/07/03 05:58:06;;;;;;;;;7.00;4.75;;;;;19.87;45.88;100956.88;5074096;28;45383;-69
2023/07/03 06:00:31;;;;;;;;;5.75;4.50;;;;;19.86;45.60;100953.38;5061562;28;45295;-69
2023/07/03 06:02:58;;;;;;;;;4.25;3.25;;;;;19.84;45.30;100952.56;5068503;28;45436;-69
2023/07/03 06:05:24;;;;;;;;;6.25;4.75;;;;;19.85;45.16;100959.63;5061049;28;45386;-69
2023/07/03 06:07:49;;;;;;;;;10.00;5.75;;;;;19.86;45.12;100957.81;5061217;28;45241;-69
2023/07/03 06:10:16;;;;;;;;;6.00;5.75;;;;;19.86;45.33;100942.72;5061280;28;45225;-69
2023/07/03 06:12:42;;;;;;;;;4.25;4.25;;;;;19.88;45.10;100943.47;5061547;28;45457;-69
2023/07/03 06:15:08;;;;;;;;;4.50;4.50;;;;;19.89;45.07;100945.22;5061009;28;45314;-69
2023/07/03 06:17:33;;;;;;;;;8.25;7.00;;;;;19.90;45.23;100954.94;5060000;28;45253;-69
2023/07/03 06:19:59;;;;;;;;;5.00;4.25;;;;;19.93;45.48;100953.91;5060407;28;45174;-69
2023/07/03 06:22:24;;;;;;;;;3.00;3.00;;;;;19.94;44.96;100947.66;5061507;28;45134;-69
2023/07/03 06:24:50;;;;;;;;;6.75;4.75;;;;;19.97;45.05;100956.38;5060802;28;45505;-68
2023/07/03 06:27:16;;;;;;;;;7.25;4.50;;;;;20.01;45.03;100964.19;5061312;28;45391;-69
2023/07/03 06:29:41;;;;;;;;;4.00;4.00;;;;;20.02;44.94;100957.94;5061149;28;45256;-69
2023/07/03 06:32:08;;;;;;;;;6.00;4.25;;;;;20.04;44.87;100962.25;5061190;28;45237;-68
2023/07/03 06:34:33;;;;;;;;;5.75;5.00;;;;;20.06;44.83;100965.72;5060648;28;45426;-68
2023/07/03 06:37:00;;;;;;;;;4.00;3.50;;;;;20.07;45.57;100971.91;5060970;28;45293;-69
2023/07/03 06:39:26;;;;;;;;;8.50;5.00;;;;;20.07;45.50;100964.75;5060897;28;45290;-69
2023/07/03 06:41:51;;;;;;;;;4.50;3.50;;;;;20.07;45.08;100962.06;5059441;28;45323;-68
2023/07/03 06:44:18;;;;;;;;;4.00;4.00;;;;;20.08;45.39;100954.94;5060696;28;46275;-69
2023/07/03 06:46:44;;;;;;;;;4.00;3.50;;;;;20.08;44.92;100953.13;5069331;28;45366;-68
2023/07/03 06:49:09;;;;;;;;;5.25;5.00;;;;;20.11;45.34;100958.34;5063009;28;45250;-68
2023/07/03 06:51:36;;;;;;;;;4.00;4.00;;;;;20.11;45.44;100944.13;5071990;28;45519;-68
2023/07/03 06:54:02;;;;;;;;;7.25;4.00;;;;;20.13;44.94;100953.75;5080779;28;45452;-68
2023/07/03 06:56:28;;;;;;;;;4.00;4.00;;;;;20.12;45.34;100941.38;5069646;27;45478;-68
2023/07/03 06:58:54;;;;;;;;;4.25;3.00;;;;;20.17;44.91;100942.94;5060491;28;45434;-68
2023/07/03 07:01:24;;;;;;;;;4.00;3.50;;;;;20.18;45.41;100950.03;5059288;28;45225;-68
2023/07/03 07:03:49;;;;;;;;;12.50;9.25;;;;;20.21;45.05;100947.19;5060118;28;45247;-68
2023/07/03 07:06:22;;;;;;;;;3.00;2.25;;;;;20.22;45.09;100951.56;5060416;28;45345;-69
2023/07/03 07:08:48;;;;;;;;;5.75;4.00;;;;;20.20;45.45;100956.13;5059239;28;45388;-68
2023/07/03 07:11:16;;;;;;;;;4.00;4.00;;;;;20.22;45.26;100952.44;5060343;28;45484;-68
2023/07/03 07:13:44;;;;;;;;;4.00;4.00;;;;;20.23;45.44;100954.16;5060265;28;45385;-68
2023/07/03 07:16:18;;;;;;;;;4.75;4.25;;;;;20.23;45.12;100955.97;5060367;28;45433;-68
2023/07/03 07:18:46;;;;;;;;;2.50;2.50;;;;;20.27;45.39;100949.53;5067716;28;45513;-67
2023/07/03 07:21:11;;;;;;;;;106.60;97.00;;;;;20.29;44.95;100958.34;5079721;28;45553;-68
2023/07/03 07:23:36;;;;;;;;;7.50;5.50;;;;;20.29;45.07;100948.50;5078943;28;47270;-68
2023/07/03 07:26:02;;;;;;;;;6.25;3.25;;;;;20.34;44.92;100963.41;5080215;28;45170;-68
2023/07/03 07:28:27;;;;;;;;;9.00;4.50;;;;;20.37;44.94;100963.28;5079528;27;45250;-68
2023/07/03 07:30:53;;;;;;;;;8.00;6.25;;;;;20.37;44.86;100956.13;5080215;28;45422;-68
2023/07/03 07:33:18;;;;;;;;;5.00;4.00;;;;;20.42;45.16;100961.22;5077886;28;58461;-68
2023/07/03 07:35:43;;;;;;;;;16.50;13.25;;;;;20.43;45.25;100957.63;5080150;28;45237;-68
2023/07/03 07:38:10;;;;;;;;;33.25;27.00;;;;;20.47;44.87;100964.50;5080275;27;45291;-68
2023/07/03 07:40:35;;;;;;;;;9.25;7.50;;;;;20.49;44.94;100949.28;5080193;28;45300;-68
2023/07/03 07:43:01;;;;;;;;;5.00;4.00;;;;;20.52;44.99;100953.59;5080203;28;45434;-68
2023/07/03 07:45:27;;;;;;;;;5.00;4.25;;;;;20.56;44.83;100958.69;5080192;28;45329;-68
2023/07/03 07:47:52;;;;;;;;;5.75;4.00;;;;;20.57;45.46;100962.22;5072401;28;45332;-68
2023/07/03 07:50:18;;;;;;;;;5.25;4.25;;;;;20.57;45.36;100957.75;5060127;28;45288;-68
2023/07/03 07:52:43;;;;;;;;;6.00;3.25;;;;;20.61;44.92;100966.44;5078532;28;47817;-68
2023/07/03 07:55:09;;;;;;;;;5.00;4.00;;;;;20.62;45.33;100960.19;5078674;28;45394;-69
2023/07/03 07:57:34;;;;;;;;;4.50;4.00;;;;;20.67;45.46;100974.13;5074128;28;45237;-69
2023/07/03 07:59:59;;;;;;;;;3.00;3.00;;;;;20.68;45.54;100975.88;5065314;28;45283;-70
2023/07/03 08:02:25;;;;;;;;;3.25;3.25;;;;;20.69;45.04;100974.94;5080282;27;46216;-69
2023/07/03 08:04:50;;;;;;;;;4.75;3.00;;;;;20.70;45.02;100971.28;5078480;28;45304;-69
2023/07/03 08:07:16;;;;;;;;;6.00;4.75;;;;;20.73;45.25;100973.00;5080144;28;45283;-69
2023/07/03 08:09:41;;;;;;;;;4.25;4.25;;;;;20.72;45.26;100969.44;5078865;28;45501;-69
2023/07/03 08:12:07;;;;;;;;;4.00;3.25;;;;;20.74;44.79;100972.91;5079750;28;46127;-69
2023/07/03 08:14:32;;;;;;;;;6.50;5.00;;;;;20.76;45.57;100979.00;5080093;28;45173;-70
2023/07/03 08:16:58;;;;;;;;;6.00;4.00;;;;;20.77;44.99;100970.06;5079960;28;45174;-69
2023/07/03 08:19:23;;;;;;;;;5.25;4.25;;;;;20.81;45.18;100983.25;5079402;27;45239;-69
2023/07/03 08:21:48;;;;;;;;;5.75;5.75;;;;;20.84;45.49;100975.97;5079597;28;46083;-69
2023/07/03 08:24:14;;;;;;;;;6.25;4.00;;;;;20.85;45.56;100983.00;5078446;27;45333;-69
2023/07/03 08:26:41;;;;;;;;;2.75;2.75;;;;;20.89;45.51;100986.38;5078364;28;45257;-69
2023/07/03 08:29:07;;;;;;;;;5.00;3.75;;;;;20.90;44.95;100978.28;5079801;28;45410;-69
2023/07/03 08:31:33;;;;;;;;;3.00;2.00;;;;;20.89;45.43;100978.34;5079669;28;45314;-70
2023/07/03 08:33:58;;;;;;;;;5.50;4.50;;;;;20.92;45.22;100978.22;5079395;28;45386;-70
2023/07/03 08:36:23;;;;;;;;;3.00;3.00;;;;;20.92;45.72;100979.06;5079833;28;45378;-70
2023/07/03 08:38:49;;;;;;;;;2.00;2.00;;;;;20.91;45.51;100968.47;5079836;28;45685;-69
2023/07/03 08:41:15;;;;;;;;;4.25;3.00;;;;;20.92;45.67;100978.22;5079169;28;46129;-69
2023/07/03 08:43:49;;;;;;;;;7.50;6.50;;;;;20.97;45.46;100980.59;5081228;28;45262;-69
2023/07/03 08:46:22;;;;;;;;;3.50;3.50;;;;;21.01;45.60;100971.50;5083151;28;45362;-69
2023/07/03 08:48:51;;;;;;;;;4.25;4.00;;;;;21.03;44.96;100969.59;5067647;28;45347;-68
2023/07/03 08:51:20;;;;;;;;;5.25;3.00;;;;;21.03;45.33;100966.91;5070986;28;46924;-68
2023/07/03 08:53:51;;;;;;;;;4.00;3.25;;;;;21.08;45.58;100963.06;5082930;28;45560;-69
2023/07/03 08:56:21;;;;;;;;;4.00;4.00;;;;;21.11;45.25;100965.56;5082952;28;45254;-68
2023/07/03 08:58:51;;;;;;;;;2.75;2.75;;;;;21.17;44.96;100972.38;5077501;28;45453;-69
2023/07/03 09:01:39;;;;;;;;;6.00;5.75;;;;;21.21;45.29;100963.25;5062448;28;46159;-69
2023/07/03 09:04:42;;;;;;;;;5.00;3.00;;;;;21.26;44.90;100971.03;5081402;28;45382;-69
2023/07/03 09:07:16;;;;;;;;;2.00;2.00;;;;;21.26;45.30;100968.34;5082661;28;45263;-69
2023/07/03 09:10:06;;;;;;;;;5.00;4.00;;;;;21.32;45.08;100977.81;5082787;28;45244;-69
2023/07/03 09:12:38;;;;;;;;;4.00;4.00;;;;;21.35;45.25;100980.34;5082682;28;46191;-69
2023/07/03 09:15:28;;;;;;;;;5.00;5.00;;;;;21.35;44.75;100975.00;5082303;28;45232;-69
2023/07/03 09:17:58;;;;;;;;;4.25;4.00;;;;;21.37;45.05;100976.63;5082506;28;45338;-69
2023/07/03 09:20:26;;;;;;;;;6.25;4.25;;;;;21.41;45.32;100983.50;5082199;28;45434;-69
2023/07/03 09:23:01;;;;;;;;;3.00;3.00;;;;;21.40;44.82;100984.47;5080859;28;47605;-69
2023/07/03 09:25:34;;;;;;;;;4.50;4.50;;;;;21.41;45.45;100983.50;5082373;28;45243;-69
2023/07/03 09:28:01;;;;;;;;;5.75;4.00;;;;;21.39;44.46;100982.72;5081016;28;45316;-69
2023/07/03 09:30:27;;;;;;;;;4.25;3.25;;;;;21.39;44.50;100977.38;5081271;28;45517;-69
2023/07/03 09:32:52;;;;;;;;;5.50;3.00;;;;;21.42;45.07;100979.91;5082165;27;45303;-69
2023/07/03 09:35:20;;;;;;;;;2.75;2.25;;;;;21.41;45.11;100982.66;5082086;28;45326;-69
2023/07/03 09:37:50;;;;;;;;;5.25;4.00;;;;;21.43;44.95;100983.44;5080984;28;45285;-69
2023/07/03 09:40:47;;;;;;;;;5.75;5.00;;;;;21.42;44.76;100971.00;5080942;28;45508;-68
2023/07/03 09:43:20;;;;;;;;;3.75;3.75;;;;;21.44;44.71;100985.16;5076994;28;45551;-68
2023/07/03 09:45:45;;;;;;;;;4.00;4.00;;;;;21.43;44.70;100983.44;5082008;28;45231;-68
2023/07/03 09:48:23;;;;;;;;;9.50;6.00;;;;;21.47;44.51;100976.97;5072185;28;45352;-69
2023/07/03 09:50:49;;;;;;;;;4.75;3.50;;;;;21.50;44.70;100979.47;5065992;28;45422;-68
2023/07/03 09:53:21;;;;;;;;;3.00;3.00;;;;;21.51;44.96;100986.53;5082059;28;45317;-69
2023/07/03 09:55:55;;;;;;;;;5.25;4.75;;;;;21.49;44.43;100980.41;5080794;28;45271;-68
2023/07/03 09:58:24;;;;;;;;;5.75;5.00;;;;;21.55;44.76;100987.22;5073624;28;45408;-69
2023/07/03 10:00:55;;;;;;;;;7.75;4.00;;;;;21.57;44.48;100991.56;5061519;28;45308;-69
2023/07/03 10:03:23;;;;;;;;;6.50;5.25;;;;;21.58;44.47;100987.09;5061440;28;45405;-69
2023/07/03 10:05:48;;;;;;;;;6.00;6.00;;;;;21.62;44.59;100988.63;5061255;28;45347;-69
2023/07/03 10:08:19;;;;;;;;;4.75;4.75;;;;;21.65;44.80;100993.81;5061539;28;45287;-69
2023/07/03 10:10:45;;;;;;;;;6.25;3.25;;;;;21.67;44.56;100994.59;5061563;28;45174;-68
2023/07/03 10:13:24;;;;;;;;;6.00;5.00;;;;;21.73;44.27;100999.56;5071995;28;45372;-68
2023/07/03 10:15:51;;;;;;;;;7.25;4.50;;;;;21.75;44.27;100995.00;5061286;28;45317;-68
2023/07/03 10:18:24;;;;;;;;;6.25;5.00;;;;;21.80;44.76;100989.41;5061262;28;45230;-68
2023/07/03 10:20:51;;;;;;;;;5.75;4.00;;;;;21.86;44.43;100993.53;5060848;28;45323;-68
2023/07/03 10:23:21;;;;;;;;;6.50;4.25;;;;;21.86;44.46;100997.06;5060938;28;45420;-69
2023/07/03 10:25:56;;;;;;;;;4.50;3.25;;;;;21.88;44.42;100986.28;5060876;28;45402;-69
2023/07/03 10:28:28;;;;;;;;;4.75;3.75;;;;;21.99;44.45;100989.19;5061328;28;45407;-69
2023/07/03 10:30:59;;;;;;;;;4.00;4.00;;;;;22.04;44.30;101002.31;5061125;28;45331;-69
2023/07/03 10:33:37;;;;;;;;;5.50;4.75;;;;;22.12;44.15;101001.84;5060931;28;46316;-68
2023/07/03 10:36:07;;;;;;;;;3.00;3.00;;;;;22.13;44.35;100979.50;5060813;28;45303;-68
2023/07/03 10:38:39;;;;;;;;;6.75;3.00;;;;;22.19;44.65;100973.78;5059730;28;45404;-68
2023/07/03 10:41:30;;;;;;;;;3.75;1.00;;;;;22.27;44.43;100965.28;5060505;28;45228;-68
2023/07/03 10:44:03;;;;;;;;;4.00;2.75;;;;;22.39;44.15;100973.47;5060790;28;45406;-69
2023/07/03 10:46:48;;;;;;;;;6.75;5.00;;;;;22.48;43.92;100969.38;5068302;28;45454;-68
2023/07/03 10:49:26;;;;;;;;;4.25;3.50;;;;;22.56;43.86;100967.09;5067256;28;45492;-69
2023/07/03 10:52:01;;;;;;;;;4.25;3.50;;;;;22.70;44.44;100971.63;5081063;28;45457;-68
2023/07/03 10:54:35;;;;;;;;;6.00;4.00;;;;;22.82;44.08;100975.34;5080922;28;45278;-69
2023/07/03 10:57:05;;;;;;;;;6.75;4.00;;;;;22.99;43.90;100971.63;5080717;28;45216;-69
2023/07/03 10:59:34;;;;;;;;;2.75;2.50;;;;;23.16;43.97;100973.25;5062823;28;45445;-69
2023/07/03 11:02:17;;;;;;;;;5.50;5.50;;;;;23.35;43.85;100953.31;5060458;28;45538;-69
2023/07/03 11:04:57;;;;;;;;;5.25;3.50;;;;;23.56;43.71;100977.00;5059165;28;47308;-69
2023/07/03 11:07:53;;;;;;;;;4.00;4.00;;;;;23.73;43.25;100971.38;5066537;28;45283;-69
2023/07/03 11:10:49;;;;;;;;;4.00;3.00;;;;;23.96;43.67;100969.91;5080722;28;45293;-69
2023/07/03 11:13:37;;;;;;;;;3.00;0.75;;;;;24.15;43.61;100966.81;5080895;28;45231;-68
2023/07/03 11:16:12;;;;;;;;;3.00;2.00;;;;;24.39;42.62;100970.59;5080791;28;45349;-69
2023/07/03 11:18:48;;;;;;;;;3.25;3.00;;;;;24.63;42.49;100966.22;5079069;28;45419;-69
2023/07/03 11:21:51;;;;;;;;;3.50;2.00;;;;;24.93;42.55;100966.88;5080339;28;45517;-69
2023/07/03 11:24:24;;;;;;;;;3.00;3.00;;;;;25.13;42.14;100970.81;5079254;28;45277;-69
2023/07/03 11:26:56;;;;;;;;;4.75;4.50;;;;;25.26;41.51;100974.34;5080182;28;46355;-69
2023/07/03 11:29:22;;;;;;;;;5.25;5.25;;;;;25.35;41.66;100971.97;5080310;28;45235;-69